Time;durP1;ratioP1;P1;durP2;ratioP2;P2;SDS_P1;SDS_P2;PMS_P1;PMS_P2;Temp;Humidity;BMP_temperature;BMP_pressure;BME280_temperature;BME280_humidity;BME280_pressure;Samples;Min_cycle;Max_cycle;Signal;HPM_P1;HPM_P2
2022/09/14 00:02:47;;;;;;;4.65;1.52;;;;;;;12.60;100.00;99870.50;6285020;28;20405;-88
2022/09/14 00:05:48;;;;;;;2.60;1.17;;;;;;;12.58;100.00;99872.44;6274834;28;20045;-88
2022/09/14 00:08:52;;;;;;;3.67;1.15;;;;;;;12.56;100.00;99869.16;6285145;28;20041;-88
2022/09/14 00:11:55;;;;;;;4.22;1.17;;;;;;;12.54;100.00;99870.28;6285833;28;20041;-88
2022/09/14 00:14:56;;;;;;;4.20;1.40;;;;;;;12.49;100.00;99862.94;6279096;28;20047;-88
2022/09/14 00:17:58;;;;;;;5.70;1.23;;;;;;;12.46;100.00;99858.84;6270876;28;20049;-88
2022/09/14 00:21:05;;;;;;;3.72;1.17;;;;;;;12.44;100.00;99871.16;6261939;28;20537;-88
2022/09/14 00:24:10;;;;;;;4.35;1.20;;;;;;;12.40;100.00;99866.44;6270217;28;20082;-88
2022/09/14 00:27:12;;;;;;;4.07;1.33;;;;;;;12.38;100.00;99865.78;6276767;28;20047;-88
2022/09/14 00:30:13;;;;;;;4.80;1.13;;;;;;;12.34;100.00;99854.06;6273478;28;20232;-89
2022/09/14 00:33:15;;;;;;;5.35;1.27;;;;;;;12.32;100.00;99845.59;6275548;28;20494;-89
2022/09/14 00:36:26;;;;;;;3.97;1.25;;;;;;;12.33;100.00;99835.06;6272051;28;20067;-88
2022/09/14 00:39:28;;;;;;;3.92;1.20;;;;;;;12.33;100.00;99835.06;6269042;28;20462;-88
2022/09/14 00:42:29;;;;;;;3.15;1.10;;;;;;;12.32;100.00;99836.03;6278050;28;20543;-88
2022/09/14 00:45:31;;;;;;;4.03;1.20;;;;;;;12.34;100.00;99828.09;6299348;28;20537;-88
2022/09/14 00:48:33;;;;;;;6.65;1.25;;;;;;;12.34;100.00;99834.09;6278312;28;20122;-89
2022/09/14 00:51:40;;;;;;;4.53;1.10;;;;;;;12.39;100.00;99825.88;6275117;28;20115;-88
2022/09/14 00:54:54;;;;;;;3.47;1.23;;;;;;;12.41;100.00;99821.34;6274055;28;20479;-88
2022/09/14 00:57:55;;;;;;;5.80;1.40;;;;;;;12.42;100.00;99826.41;6271462;28;20052;-88
2022/09/14 01:00:57;;;;;;;3.00;1.25;;;;;;;12.45;100.00;99825.28;6281696;28;20032;-89
2022/09/14 01:03:59;;;;;;;2.35;1.27;;;;;;;12.45;100.00;99814.91;6279036;28;20051;-88
2022/09/14 01:07:42;;;;;;;4.00;1.00;;;;;;;12.46;100.00;99813.91;6277173;28;20052;-88
2022/09/14 01:11:18;;;;;;;3.83;1.13;;;;;;;12.45;100.00;99814.91;6237904;28;20087;-88
2022/09/14 01:14:47;;;;;;;2.03;1.02;;;;;;;12.47;100.00;99818.97;6252933;28;20125;-88
2022/09/14 01:18:17;;;;;;;3.58;1.13;;;;;;;12.47;100.00;99813.78;6252059;28;20052;-88
2022/09/14 01:21:31;;;;;;;6.20;1.20;;;;;;;12.50;100.00;99820.44;6256149;28;20052;-88
2022/09/14 01:24:54;;;;;;;5.20;1.50;;;;;;;12.47;100.00;99824.16;6256479;28;20049;-89
2022/09/14 01:28:01;;;;;;;4.75;1.27;;;;;;;12.52;100.00;99818.53;6255262;28;20049;-88
2022/09/14 01:31:10;;;;;;;6.13;1.35;;;;;;;12.52;100.00;99826.31;6237460;28;20045;-88
2022/09/14 01:34:38;;;;;;;3.13;1.00;;;;;;;12.55;100.00;99830.38;6256244;28;20057;-88
2022/09/14 01:37:46;;;;;;;6.50;1.10;;;;;;;12.54;100.00;99813.97;6222057;28;20045;-88
2022/09/14 01:40:49;;;;;;;2.55;1.40;;;;;;;12.54;100.00;99819.16;6255152;28;21000;-88
2022/09/14 01:44:04;;;;;;;5.00;1.63;;;;;;;12.54;100.00;99816.56;6255318;28;20051;-88
2022/09/14 01:47:15;;;;;;;4.53;1.10;;;;;;;12.50;100.00;99810.88;6263925;28;20063;-88
2022/09/14 01:50:40;;;;;;;3.35;1.15;;;;;;;12.49;100.00;99816.22;6275062;28;20041;-88
2022/09/14 01:54:05;;;;;;;7.97;1.05;;;;;;;12.45;100.00;99809.72;6275460;28;20358;-88
2022/09/14 01:57:30;;;;;;;2.28;0.90;;;;;;;12.45;100.00;99812.31;6279655;28;20033;-88
2022/09/14 02:00:33;;;;;;;3.65;1.00;;;;;;;12.44;100.00;99803.69;6280495;28;20049;-88
2022/09/14 02:04:03;;;;;;;1.60;0.90;;;;;;;12.42;100.00;99797.00;6280398;28;20055;-89
2022/09/14 02:07:05;;;;;;;2.95;1.10;;;;;;;12.39;100.00;99789.53;6276688;28;20049;-88
2022/09/14 02:10:12;;;;;;;1.50;0.70;;;;;;;12.37;100.00;99792.28;6273953;28;20094;-88
2022/09/14 02:13:13;;;;;;;4.65;0.90;;;;;;;12.37;100.00;99789.69;6274652;28;20155;-88
2022/09/14 02:16:17;;;;;;;2.20;0.93;;;;;;;12.39;100.00;99792.13;6265892;28;20081;-88
2022/09/14 02:19:18;;;;;;;3.40;1.30;;;;;;;12.41;100.00;99791.00;6262302;28;20109;-88
2022/09/14 02:22:26;;;;;;;3.22;0.90;;;;;;;12.40;100.00;99801.56;6274104;28;20040;-89
2022/09/14 02:25:27;;;;;;;1.45;0.73;;;;;;;12.38;100.00;99791.31;6269590;28;20164;-88
2022/09/14 02:28:29;;;;;;;2.75;0.80;;;;;;;12.35;100.00;99793.41;6271062;28;20041;-88
2022/09/14 02:32:03;;;;;;;2.28;0.80;;;;;;;12.31;100.00;99797.25;6280575;28;20502;-88
2022/09/14 02:35:20;;;;;;;2.25;0.80;;;;;;;12.27;100.00;99797.56;6275603;28;20490;-88
2022/09/14 02:38:49;;;;;;;2.63;1.92;;;;;;;12.28;100.00;99798.38;6279780;28;20044;-89
2022/09/14 02:42:19;;;;;;;2.72;0.75;;;;;;;12.24;100.00;99794.44;6274464;28;20593;-89
2022/09/14 02:45:27;;;;;;;1.00;0.80;;;;;;;12.24;100.00;99794.44;6280961;28;20552;-88
2022/09/14 02:49:07;;;;;;;5.43;1.00;;;;;;;12.21;100.00;99782.59;6271568;28;20037;-89
2022/09/14 02:52:29;;;;;;;1.88;0.80;;;;;;;12.20;100.00;99777.56;6276213;28;20167;-88
2022/09/14 02:55:40;;;;;;;4.68;1.00;;;;;;;12.24;100.00;99773.69;6280760;28;20040;-88
2022/09/14 02:58:43;;;;;;;;;;;;;;;12.21;100.00;99767.03;6274815;28;20048;-88
2022/09/14 03:01:44;;;;;;;3.50;0.95;;;;;;;12.17;100.00;99765.69;6288192;28;19932;-88
2022/09/14 03:04:47;;;;;;;4.03;0.90;;;;;;;12.19;100.00;99773.31;6288507;28;20422;-88
2022/09/14 03:07:49;;;;;;;3.70;0.95;;;;;;;12.19;100.00;99778.50;6286868;28;20037;-88
2022/09/14 03:10:51;;;;;;;1.85;0.90;;;;;;;12.16;100.00;99779.63;6281580;28;20045;-88
2022/09/14 03:13:52;;;;;;;2.83;1.00;;;;;;;12.16;100.00;99773.63;6290378;28;20037;-88
2022/09/14 03:16:54;;;;;;;1.88;0.90;;;;;;;12.16;100.00;99768.44;6289850;28;20040;-88
2022/09/14 03:19:55;;;;;;;2.90;1.35;;;;;;;12.14;100.00;99773.78;6276356;28;20045;-89
2022/09/14 03:22:58;;;;;;;2.15;1.00;;;;;;;12.10;100.00;99767.28;6295014;28;20037;-88
2022/09/14 03:25:59;;;;;;;3.63;0.90;;;;;;;12.09;100.00;99755.25;6279880;28;20214;-88
2022/09/14 03:29:04;;;;;;;2.25;0.90;;;;;;;12.07;100.00;99754.56;6276926;28;20045;-88
2022/09/14 03:32:09;;;;;;;2.47;0.73;;;;;;;12.06;100.00;99745.19;6287005;28;20256;-88
2022/09/14 03:35:12;;;;;;;1.92;0.70;;;;;;;12.05;100.00;99735.78;6289870;28;20174;-88
2022/09/14 03:38:14;;;;;;;3.65;1.15;;;;;;;12.06;100.00;99740.00;6283191;28;20045;-88
2022/09/14 03:41:16;;;;;;;2.33;0.70;;;;;;;12.05;100.00;99738.38;6289028;28;20048;-88
2022/09/14 03:44:17;;;;;;;2.15;0.93;;;;;;;12.01;100.00;99730.06;6289325;28;20382;-89
2022/09/14 03:47:19;;;;;;;5.63;1.08;;;;;;;11.98;100.00;99730.38;6288050;28;20573;-89
2022/09/14 03:50:21;;;;;;;3.50;0.88;;;;;;;11.93;100.00;99717.03;6282693;28;20101;-89
2022/09/14 03:53:22;;;;;;;1.70;0.80;;;;;;;11.91;100.00;99718.16;6272679;28;20041;-88
2022/09/14 03:56:24;;;;;;;4.20;0.90;;;;;;;11.85;100.00;99717.75;6278372;28;20410;-89
2022/09/14 03:59:26;;;;;;;2.17;0.90;;;;;;;11.81;100.00;99724.19;6279901;28;20134;-88
2022/09/14 04:02:28;;;;;;;3.03;1.00;;;;;;;11.78;100.00;99714.13;6279042;28;20057;-88
2022/09/14 04:05:30;;;;;;;6.43;1.10;;;;;;;11.77;100.00;99709.88;6268997;28;20041;-88
2022/09/14 04:08:35;;;;;;;3.33;1.00;;;;;;;11.73;100.00;99708.56;6279921;28;21111;-88
2022/09/14 04:11:36;;;;;;;3.42;1.10;;;;;;;11.69;100.00;99709.00;6287819;28;20045;-88
2022/09/14 04:14:38;;;;;;;2.70;0.93;;;;;;;11.60;100.00;99716.72;6288390;28;20477;-88
2022/09/14 04:17:39;;;;;;;2.58;0.85;;;;;;;11.59;100.00;99722.03;6284405;28;20569;-88
2022/09/14 04:20:41;;;;;;;2.03;1.10;;;;;;;11.54;100.00;99711.31;6287910;28;20044;-88
2022/09/14 04:23:43;;;;;;;1.88;0.82;;;;;;;11.51;100.00;99702.03;6273036;28;20113;-88
2022/09/14 04:27:05;;;;;;;2.50;1.00;;;;;;;11.47;100.00;99705.06;6278894;28;20038;-88
2022/09/14 04:30:07;;;;;;;2.13;1.13;;;;;;;11.46;100.00;99703.47;6286748;28;20442;-89
2022/09/14 04:33:08;;;;;;;2.70;1.10;;;;;;;11.46;100.00;99706.06;6288203;28;20078;-89
2022/09/14 04:36:15;;;;;;;3.10;1.35;;;;;;;11.42;100.00;99715.88;6284801;28;20033;-89
2022/09/14 04:39:16;;;;;;;2.17;1.00;;;;;;;11.38;100.00;99715.38;6284295;28;20482;-88
2022/09/14 04:42:18;;;;;;;2.08;1.15;;;;;;;11.37;100.00;99715.50;6282591;28;20485;-88
2022/09/14 04:45:20;;;;;;;2.72;1.30;;;;;;;11.39;100.00;99721.34;6280566;28;20044;-88
2022/09/14 04:48:22;;;;;;;2.75;1.10;;;;;;;11.36;100.00;99714.69;6288064;28;20043;-89
2022/09/14 04:51:28;;;;;;;4.07;1.15;;;;;;;11.38;100.00;99717.16;6274437;28;20044;-88
2022/09/14 04:54:30;;;;;;;4.15;1.50;;;;;;;11.41;100.00;99714.25;6281597;28;20032;-88
2022/09/14 04:57:31;;;;;;;2.58;1.55;;;;;;;11.41;100.00;99714.25;6286553;28;20048;-89
2022/09/14 05:00:34;;;;;;;2.03;1.10;;;;;;;11.39;100.00;99711.81;6277630;28;20498;-88
2022/09/14 05:03:37;;;;;;;3.25;1.23;;;;;;;11.43;100.00;99715.75;6282335;28;20089;-88
2022/09/14 05:06:41;;;;;;;2.97;1.40;;;;;;;11.49;100.00;99713.53;6279860;28;20137;-89
2022/09/14 05:09:43;;;;;;;2.50;1.00;;;;;;;11.52;100.00;99721.00;6277254;28;20064;-89
2022/09/14 05:12:45;;;;;;;1.77;1.00;;;;;;;11.55;100.00;99718.09;6278418;28;20501;-89
2022/09/14 05:15:46;;;;;;;6.40;1.20;;;;;;;11.59;100.00;99719.44;6275210;28;20037;-89
2022/09/14 05:18:49;;;;;;;2.63;1.30;;;;;;;11.60;100.00;99723.66;6261921;28;20045;-88
2022/09/14 05:21:52;;;;;;;1.02;1.00;;;;;;;11.68;100.00;99725.53;6267543;28;20525;-88
2022/09/14 05:24:54;;;;;;;2.78;1.30;;;;;;;11.71;100.00;99718.28;6258956;28;20041;-88
2022/09/14 05:27:56;;;;;;;3.80;1.30;;;;;;;11.67;100.00;99719.50;6271795;28;20116;-88
2022/09/14 05:31:03;;;;;;;2.20;1.27;;;;;;;11.69;100.00;99721.97;6274461;28;20048;-88
2022/09/14 05:34:05;;;;;;;6.75;1.75;;;;;;;11.75;100.00;99719.63;6283237;28;20406;-88
2022/09/14 05:37:06;;;;;;;7.25;1.27;;;;;;;11.82;100.00;99712.84;6285120;28;20553;-88
2022/09/14 05:40:09;;;;;;;5.20;1.45;;;;;;;11.80;100.00;99714.78;6281878;28;20418;-88
2022/09/14 05:43:11;;;;;;;1.92;1.23;;;;;;;11.84;100.00;99712.69;6279667;28;20040;-88
2022/09/14 05:46:21;;;;;;;4.45;1.30;;;;;;;11.82;100.00;99715.44;6278175;28;20478;-88
2022/09/14 05:49:24;;;;;;;8.33;1.20;;;;;;;11.88;100.00;99716.66;6278375;28;20041;-88
2022/09/14 05:52:28;;;;;;;2.33;0.95;;;;;;;12.00;100.00;99717.22;6283697;28;20590;-89
2022/09/14 05:55:30;;;;;;;1.52;0.80;;;;;;;12.20;100.00;99707.50;6285849;28;20040;-89
2022/09/14 05:58:35;;;;;;;2.28;1.20;;;;;;;12.33;100.00;99707.91;6281623;28;20056;-89
2022/09/14 06:01:36;;;;;;;1.45;0.90;;;;;;;12.42;100.00;99711.34;6283368;28;20422;-88
2022/09/14 06:04:38;;;;;;;5.72;1.15;;;;;;;12.51;100.00;99702.66;6277531;28;20060;-88
2022/09/14 06:07:40;;;;;;;3.33;1.20;;;;;;;12.59;100.00;99705.28;6283243;28;20048;-88
2022/09/14 06:10:43;;;;;;;2.35;1.05;;;;;;;12.61;100.00;99700.75;6277296;28;20045;-89
2022/09/14 06:13:45;;;;;;;2.72;1.10;;;;;;;12.67;100.00;99702.75;6277840;28;20038;-88
2022/09/14 06:16:47;;;;;;;2.70;1.20;;;;;;;12.77;100.00;99694.00;6285314;28;20032;-88
2022/09/14 06:19:49;;;;;;;3.80;1.10;;;;;;;12.87;100.00;99689.53;6278686;28;20477;-89
2022/09/14 06:22:51;;;;;;;3.05;1.30;;;;;;;12.91;100.00;99685.63;6281815;28;20048;-89
2022/09/14 06:25:55;;;;;;;2.50;1.30;;;;;;;12.96;100.00;99685.16;6260336;28;20055;-89
2022/09/14 06:28:56;;;;;;;10.43;2.10;;;;;;;12.99;100.00;99687.44;6262655;28;20128;-89
2022/09/14 06:31:58;;;;;;;5.55;1.60;;;;;;;13.00;100.00;99683.91;6300080;28;20041;-89
2022/09/14 06:35:00;;;;;;;4.80;1.40;;;;;;;13.00;100.00;99684.69;6282991;28;20485;-89
2022/09/14 06:38:01;;;;;;;1.95;1.38;;;;;;;13.01;100.00;99691.50;6282633;28;20504;-89
2022/09/14 06:41:05;;;;;;;3.08;1.10;;;;;;;12.95;100.00;99681.75;6283610;28;20679;-89
2022/09/14 06:44:08;;;;;;;3.25;1.30;;;;;;;12.97;100.00;99679.81;6278540;28;20045;-89
2022/09/14 06:47:09;;;;;;;3.80;1.25;;;;;;;13.03;100.00;99686.16;6277837;28;20131;-89
2022/09/14 06:50:11;;;;;;;1.95;1.13;;;;;;;13.04;100.00;99686.03;6281834;28;20044;-88
2022/09/14 06:53:13;;;;;;;3.95;1.17;;;;;;;13.05;100.00;99674.66;6286457;28;20047;-88
2022/09/14 06:56:15;;;;;;;1.80;1.10;;;;;;;13.06;100.00;99681.47;6274204;28;20041;-88
2022/09/14 06:59:17;;;;;;;3.45;1.20;;;;;;;13.10;100.00;99679.38;6276787;28;20068;-88
2022/09/14 07:02:19;;;;;;;3.65;1.10;;;;;;;13.20;100.00;99680.03;6302403;28;20094;-88
2022/09/14 07:05:21;;;;;;;8.52;1.30;;;;;;;13.36;100.00;99689.69;6280121;28;20879;-88
2022/09/14 07:08:26;;;;;;;4.50;1.48;;;;;;;13.50;100.00;99691.66;6287926;28;20373;-89
2022/09/14 07:11:28;;;;;;;3.20;1.30;;;;;;;13.64;100.00;99698.03;6279788;28;20135;-89
2022/09/14 07:14:30;;;;;;;6.15;1.65;;;;;;;13.77;100.00;99697.53;6288119;28;20048;-89
2022/09/14 07:17:35;;;;;;;4.25;1.50;;;;;;;13.86;100.00;99696.53;6290232;28;20047;-89
2022/09/14 07:20:36;;;;;;;6.38;1.70;;;;;;;13.89;100.00;99698.84;6288476;28;20037;-89
2022/09/14 07:23:40;;;;;;;3.63;1.20;;;;;;;14.02;100.00;99697.53;6280806;28;20037;-89
2022/09/14 07:26:42;;;;;;;2.47;1.25;;;;;;;14.19;100.00;99704.34;6283462;28;20036;-89
2022/09/14 07:29:44;;;;;;;2.35;1.20;;;;;;;14.36;100.00;99694.69;6289848;28;20045;-89
2022/09/14 07:32:46;;;;;;;3.22;1.40;;;;;;;14.50;100.00;99688.00;6287156;28;20036;-88
2022/09/14 07:35:47;;;;;;;5.10;1.60;;;;;;;14.64;100.00;99682.94;6285279;28;20040;-89
2022/09/14 07:38:50;;;;;;;3.03;1.70;;;;;;;14.80;100.00;99684.66;6270165;28;20064;-89
2022/09/14 07:41:54;;;;;;;3.25;1.27;;;;;;;14.99;100.00;99688.66;6288595;28;20550;-89
2022/09/14 07:44:56;;;;;;;3.03;1.35;;;;;;;15.20;100.00;99689.84;6278680;28;20052;-89
2022/09/14 07:47:58;;;;;;;6.00;1.35;;;;;;;15.38;100.00;99700.84;6292923;28;20090;-89
2022/09/14 07:51:09;;;;;;;3.10;1.20;;;;;;;15.52;100.00;99700.06;6285174;28;20074;-89
2022/09/14 07:54:13;;;;;;;3.63;2.08;;;;;;;15.55;100.00;99698.91;6273540;28;20126;-89
2022/09/14 07:57:15;;;;;;;2.65;1.50;;;;;;;15.52;100.00;99692.25;6283675;28;20037;-89
2022/09/14 08:00:17;;;;;;;6.70;1.67;;;;;;;15.47;100.00;99691.16;6275180;28;20490;-89
2022/09/14 08:03:19;;;;;;;3.95;1.83;;;;;;;15.36;100.00;99679.34;6289135;28;20049;-89
2022/09/14 08:06:24;;;;;;;4.43;1.52;;;;;;;15.29;100.00;99684.41;6274161;28;20044;-89
2022/09/14 08:09:26;;;;;;;6.28;1.80;;;;;;;15.26;100.00;99679.56;6279960;28;20052;-89
2022/09/14 08:12:28;;;;;;;5.35;1.95;;;;;;;15.35;100.00;99680.31;6287313;28;20052;-89
2022/09/14 08:15:30;;;;;;;6.80;1.70;;;;;;;15.48;100.00;99680.56;6273770;28;20045;-89
2022/09/14 08:18:34;;;;;;;3.85;1.52;;;;;;;15.67;100.00;99686.28;6275267;28;20044;-88
2022/09/14 08:21:36;;;;;;;5.50;1.45;;;;;;;15.84;100.00;99677.38;6277157;28;20131;-89
2022/09/14 08:24:42;;;;;;;5.75;1.83;;;;;;;16.08;100.00;99688.59;6285482;28;20226;-89
2022/09/14 08:27:44;;;;;;;4.40;1.30;;;;;;;16.21;100.00;99682.75;6271034;28;20055;-89
2022/09/14 08:30:46;;;;;;;3.58;1.58;;;;;;;16.36;100.00;99681.75;6281811;28;20144;-89
2022/09/14 08:33:53;;;;;;;3.70;1.30;;;;;;;16.51;100.00;99683.56;6279784;28;20626;-89
2022/09/14 08:36:55;;;;;;;8.27;1.88;;;;;;;16.67;100.00;99686.03;6287157;28;20573;-89
2022/09/14 08:39:57;;;;;;;3.63;1.00;;;;;;;16.88;100.00;99690.50;6275706;28;20048;-89
2022/09/14 08:43:02;;;;;;;6.60;1.30;;;;;;;17.21;100.00;99682.22;6272790;28;20051;-89
2022/09/14 08:46:11;;;;;;;5.63;1.42;;;;;;;17.49;100.00;99676.25;6272161;28;20483;-89
2022/09/14 08:49:50;;;;;;;4.45;1.45;;;;;;;17.74;100.00;99677.53;6276909;28;20106;-89
2022/09/14 08:52:53;;;;;;;3.40;1.60;;;;;;;17.96;98.19;99683.56;6273951;28;20060;-89
2022/09/14 08:56:01;;;;;;;4.80;1.20;;;;;;;18.12;100.00;99665.94;6277142;28;20049;-89
2022/09/14 08:59:20;;;;;;;3.25;1.35;;;;;;;18.26;97.69;99665.84;6278525;28;20048;-89
2022/09/14 09:02:31;;;;;;;5.20;1.13;;;;;;;18.33;95.46;99670.28;6274533;28;20059;-89
2022/09/14 09:06:07;;;;;;;6.93;1.20;;;;;;;18.47;95.90;99672.00;6282656;28;20230;-89
2022/09/14 09:09:38;;;;;;;9.80;1.40;;;;;;;18.69;97.88;99670.88;6234651;28;20053;-89
2022/09/14 09:12:56;;;;;;;4.15;0.98;;;;;;;18.93;98.72;99668.78;6231314;28;20064;-89
2022/09/14 09:16:04;;;;;;;2.92;1.20;;;;;;;19.15;96.33;99658.97;6214024;28;20404;-90
2022/09/14 09:19:16;;;;;;;1.55;0.73;;;;;;;19.28;94.93;99655.59;6228833;28;20547;-89
2022/09/14 09:22:22;;;;;;;2.90;0.80;;;;;;;19.42;96.02;99656.41;6228104;28;20056;-89
2022/09/14 09:25:30;;;;;;;3.67;1.00;;;;;;;19.57;92.74;99660.44;6232838;28;20520;-90
2022/09/14 09:28:33;;;;;;;4.03;1.02;;;;;;;19.59;89.25;99657.63;6216214;28;20284;-89
2022/09/14 09:31:38;;;;;;;2.92;0.90;;;;;;;19.48;88.46;99652.97;6232330;28;20144;-89
2022/09/14 09:35:23;;;;;;;4.90;1.35;;;;;;;19.42;94.21;99654.56;6233239;28;20128;-89
2022/09/14 09:38:48;;;;;;;6.32;1.50;;;;;;;19.47;91.13;99654.78;6221940;28;20233;-89
2022/09/14 09:42:20;;;;;;;6.68;1.25;;;;;;;19.60;90.08;99656.59;6225083;28;20042;-89
2022/09/14 09:45:22;;;;;;;6.97;1.10;;;;;;;19.77;86.18;99660.47;6213784;28;20064;-89
2022/09/14 09:48:27;;;;;;;5.63;1.00;;;;;;;19.98;86.51;99656.03;6253002;28;20427;-90
2022/09/14 09:51:31;;;;;;;8.15;1.10;;;;;;;20.36;85.09;99652.72;6247936;28;20045;-89
2022/09/14 09:54:34;;;;;;;3.35;0.90;;;;;;;20.60;82.19;99638.91;6253272;28;20048;-90
2022/09/14 09:57:36;;;;;;;4.80;1.00;;;;;;;20.65;80.89;99648.81;6257465;28;20454;-89
2022/09/14 10:00:38;;;;;;;5.68;1.02;;;;;;;20.68;83.22;99652.84;6251445;28;20064;-89
2022/09/14 10:03:40;;;;;;;5.75;1.00;;;;;;;20.51;79.64;99650.63;6249231;28;20558;-89
2022/09/14 10:06:48;;;;;;;3.20;1.10;;;;;;;20.33;77.93;99656.56;6270697;28;20117;-90
2022/09/14 10:10:05;;;;;;;4.28;0.98;;;;;;;19.98;78.30;99645.53;6269504;28;20487;-89
2022/09/14 10:13:46;;;;;;;3.45;0.95;;;;;;;19.74;79.74;99644.31;6282899;28;20044;-89
2022/09/14 10:16:47;;;;;;;3.80;0.85;;;;;;;19.68;82.17;99632.81;6203034;28;20697;-89
2022/09/14 10:19:51;;;;;;;4.07;0.85;;;;;;;19.71;81.76;99624.53;6205600;28;20124;-90
2022/09/14 10:22:53;;;;;;;4.68;1.20;;;;;;;19.74;80.40;99625.94;6184841;28;20488;-89
2022/09/14 10:26:13;;;;;;;5.47;1.20;;;;;;;19.74;80.02;99625.94;6206188;28;20050;-89
2022/09/14 10:29:27;;;;;;;7.25;1.40;;;;;;;19.73;81.29;99619.88;6196817;28;20058;-89
2022/09/14 10:32:31;;;;;;;7.22;1.20;;;;;;;19.78;80.86;99606.16;6201514;28;20113;-89
2022/09/14 10:35:52;;;;;;;3.13;1.00;;;;;;;19.83;84.99;99616.03;6188368;28;20185;-89
2022/09/14 10:39:02;;;;;;;5.00;1.00;;;;;;;19.83;82.47;99616.84;6197784;28;20046;-89
2022/09/14 10:42:13;;;;;;;;;;;;;;;19.83;82.58;99622.09;6203678;28;20061;-89
2022/09/14 10:45:30;;;;;;;4.20;0.93;;;;;;;19.78;80.05;99612.19;6186948;28;20390;-89
2022/09/14 10:49:13;;;;;;;4.05;0.85;;;;;;;19.68;80.24;99616.25;6266546;28;20159;-89
2022/09/14 10:52:28;;;;;;;4.35;1.20;;;;;;;19.59;83.17;99616.41;6282264;28;20498;-89
2022/09/14 10:55:44;;;;;;;6.68;1.27;;;;;;;19.64;83.25;99605.31;6281569;28;20052;-89
2022/09/14 10:59:11;;;;;;;3.95;1.00;;;;;;;19.74;81.09;99610.19;6275949;28;20036;-89
2022/09/14 11:02:31;;;;;;;4.85;1.05;;;;;;;19.90;79.97;99603.69;6270372;28;20137;-90
2022/09/14 11:05:51;;;;;;;3.17;0.70;;;;;;;20.10;79.64;99614.16;6280640;28;20057;-89
2022/09/14 11:09:07;;;;;;;2.58;0.93;;;;;;;20.21;79.35;99605.66;6280958;28;20075;-89
2022/09/14 11:12:25;;;;;;;4.65;0.80;;;;;;;20.25;78.07;99598.16;6278118;28;20049;-90
2022/09/14 11:15:47;;;;;;;4.35;0.95;;;;;;;20.31;77.73;99595.50;6276532;28;20055;-89
2022/09/14 11:18:50;;;;;;;4.75;0.85;;;;;;;20.22;79.01;99594.09;6280201;28;20045;-89
2022/09/14 11:22:21;;;;;;;2.83;0.82;;;;;;;20.15;78.54;99598.59;6276631;28;20041;-89
2022/09/14 11:25:32;;;;;;;3.72;0.90;;;;;;;20.19;78.49;99600.59;6288179;28;20139;-89
2022/09/14 11:28:41;;;;;;;3.97;1.10;;;;;;;20.26;78.09;99602.41;6290966;28;20608;-89
2022/09/14 11:32:03;;;;;;;3.83;0.80;;;;;;;20.23;80.09;99601.00;6285860;28;20045;-90
2022/09/14 11:35:43;;;;;;;4.30;0.77;;;;;;;20.23;75.84;99606.25;6288675;28;20053;-89
2022/09/14 11:38:52;;;;;;;3.78;0.90;;;;;;;20.15;77.33;99615.19;6284378;28;20125;-89
2022/09/14 11:42:13;;;;;;;5.18;1.08;;;;;;;20.17;78.37;99605.28;6282969;28;20127;-89
2022/09/14 11:45:21;;;;;;;6.43;1.05;;;;;;;19.96;77.66;99603.69;6288400;28;20048;-89
2022/09/14 11:48:26;;;;;;;5.20;0.88;;;;;;;19.86;80.38;99605.94;6280456;28;20049;-89
2022/09/14 11:52:02;;;;;;;3.58;0.80;;;;;;;19.76;76.79;99592.41;6278574;28;20036;-89
2022/09/14 11:55:14;;;;;;;1.08;0.90;;;;;;;19.74;77.25;99589.19;6281227;28;20041;-89
2022/09/14 11:58:30;;;;;;;5.05;1.00;;;;;;;19.72;80.86;99588.56;6281775;28;20029;-89
2022/09/14 12:01:37;;;;;;;5.15;1.15;;;;;;;19.67;79.92;99580.47;6280191;28;20036;-89
2022/09/14 12:05:08;;;;;;;6.50;0.90;;;;;;;19.59;79.41;99589.34;6286147;28;20123;-89
2022/09/14 12:08:32;;;;;;;4.32;1.02;;;;;;;19.44;80.56;99592.19;6275793;28;20050;-90
2022/09/14 12:11:35;;;;;;;2.17;0.70;;;;;;;19.29;78.66;99595.00;6284002;28;20134;-89
2022/09/14 12:14:39;;;;;;;2.72;0.77;;;;;;;19.18;79.75;99589.53;6287422;28;20526;-89
2022/09/14 12:17:41;;;;;;;2.28;0.80;;;;;;;19.06;83.00;99595.41;6280887;28;20167;-90
2022/09/14 12:20:51;;;;;;;4.53;0.90;;;;;;;18.99;82.15;99591.94;6281211;28;20486;-89
2022/09/14 12:23:56;;;;;;;3.60;0.80;;;;;;;18.95;84.15;99590.72;6279675;28;20330;-90
2022/09/14 12:27:14;;;;;;;3.78;0.80;;;;;;;18.90;84.35;99595.75;6281019;28;20143;-89
2022/09/14 12:30:54;;;;;;;6.32;1.10;;;;;;;18.86;85.63;99586.69;6273886;28;20506;-89
2022/09/14 12:34:16;;;;;;;4.70;1.00;;;;;;;18.80;85.45;99590.09;6203653;28;20192;-89
2022/09/14 12:37:36;;;;;;;3.63;1.00;;;;;;;18.71;84.16;99582.38;6193635;28;20058;-89
2022/09/14 12:40:38;;;;;;;5.03;1.03;;;;;;;18.64;85.92;99581.53;6285979;28;20547;-89
2022/09/14 12:43:48;;;;;;;3.63;0.80;;;;;;;18.59;87.11;99568.22;6278135;28;20765;-89
2022/09/14 12:46:50;;;;;;;3.63;1.00;;;;;;;18.55;86.99;99579.28;6277014;28;20041;-89
2022/09/14 12:49:55;;;;;;;3.90;0.95;;;;;;;18.44;87.92;99575.44;6295286;28;20045;-89
2022/09/14 12:53:13;;;;;;;2.88;0.73;;;;;;;18.33;90.30;99575.97;6279292;28;20123;-89
2022/09/14 12:56:22;;;;;;;5.00;1.27;;;;;;;18.29;91.86;99568.50;6292030;28;20048;-90
2022/09/14 12:59:49;;;;;;;4.90;1.20;;;;;;;18.30;91.35;99569.31;6282147;28;20444;-89
2022/09/14 13:03:17;;;;;;;3.45;1.17;;;;;;;18.26;89.08;99563.66;6279609;28;20826;-89
2022/09/14 13:06:21;;;;;;;2.25;0.75;;;;;;;18.25;90.66;99566.47;6277500;28;20067;-89
2022/09/14 13:09:27;;;;;;;3.65;0.80;;;;;;;18.28;90.43;99555.59;6282187;28;20108;-89
2022/09/14 13:12:39;;;;;;;3.60;0.80;;;;;;;18.30;89.38;99566.69;6285985;28;20767;-89
2022/09/14 13:15:51;;;;;;;2.55;0.80;;;;;;;18.28;88.27;99555.59;6283143;28;20171;-89
2022/09/14 13:19:00;;;;;;;3.53;1.35;;;;;;;18.29;88.53;99558.03;6280201;28;20089;-89
2022/09/14 13:22:17;;;;;;;3.53;0.90;;;;;;;18.30;88.34;99543.91;6285598;28;20055;-89
2022/09/14 13:25:38;;;;;;;3.97;1.00;;;;;;;18.33;86.25;99544.53;6284402;28;20528;-89
2022/09/14 13:28:43;;;;;;;3.83;1.00;;;;;;;18.36;88.58;99541.50;6273292;28;20056;-89
2022/09/14 13:31:46;;;;;;;4.55;1.15;;;;;;;18.42;87.51;99546.78;6281275;28;20048;-89
2022/09/14 13:34:48;;;;;;;1.85;0.90;;;;;;;18.40;84.57;99548.00;6283105;28;20066;-89
2022/09/14 13:37:49;;;;;;;3.78;0.80;;;;;;;18.40;85.55;99540.13;6278144;28;20072;-89
2022/09/14 13:40:54;;;;;;;3.83;0.80;;;;;;;18.39;84.48;99543.78;6280580;28;20040;-89
2022/09/14 13:43:57;;;;;;;4.50;0.90;;;;;;;18.39;83.85;99538.53;6279777;28;20048;-89
2022/09/14 13:47:04;;;;;;;5.20;0.88;;;;;;;18.39;83.83;99535.91;6285300;28;20052;-89
2022/09/14 13:50:06;;;;;;;3.80;1.00;;;;;;;18.46;85.09;99531.50;6284729;28;20049;-89
2022/09/14 13:53:42;;;;;;;2.10;1.08;;;;;;;18.49;80.82;99537.13;6277677;28;20530;-89
2022/09/14 13:56:44;;;;;;;2.90;1.08;;;;;;;18.36;82.45;99521.38;6282510;28;20533;-89
2022/09/14 14:00:13;;;;;;;3.25;0.88;;;;;;;18.32;80.44;99524.59;6285034;28;20032;-89
2022/09/14 14:03:40;;;;;;;4.50;0.80;;;;;;;18.25;82.55;99512.25;6278194;28;20399;-89
2022/09/14 14:06:44;;;;;;;4.63;1.27;;;;;;;18.23;81.93;99514.25;6268075;28;20040;-89
2022/09/14 14:09:55;;;;;;;2.83;0.90;;;;;;;18.19;81.11;99507.00;6275900;28;20125;-89
2022/09/14 14:12:59;;;;;;;3.42;1.05;;;;;;;18.15;81.65;99497.91;6271886;28;20403;-88
2022/09/14 14:16:22;;;;;;;4.53;1.10;;;;;;;18.16;83.55;99494.28;6273182;28;20040;-88
2022/09/14 14:19:27;;;;;;;4.25;1.02;;;;;;;18.14;82.20;99491.88;6273312;28;20522;-88
2022/09/14 14:22:32;;;;;;;1.45;0.90;;;;;;;18.14;82.53;99493.69;6272166;28;20171;-88
2022/09/14 14:25:37;;;;;;;3.15;1.00;;;;;;;18.14;82.05;99496.31;6280002;28;20660;-89
2022/09/14 14:28:46;;;;;;;2.92;0.82;;;;;;;18.14;81.96;99489.25;6278969;28;20036;-89
2022/09/14 14:31:49;;;;;;;1.80;0.82;;;;;;;18.15;82.60;99482.22;6294740;28;20143;-88
2022/09/14 14:34:54;;;;;;;3.70;1.80;;;;;;;18.14;82.65;99477.97;6269896;28;20047;-89
2022/09/14 14:37:56;;;;;;;2.88;1.15;;;;;;;18.11;82.50;99480.97;6277874;28;20122;-89
2022/09/14 14:40:57;;;;;;;1.90;0.60;;;;;;;18.01;83.74;99466.44;6275995;28;20051;-89
2022/09/14 14:44:00;;;;;;;3.50;1.10;;;;;;;17.92;82.56;99461.59;6288918;28;20096;-89